Time;durP1;ratioP1;P1;durP2;ratioP2;P2;SDS_P1;SDS_P2;PMS_P1;PMS_P2;Temp;Humidity;BMP_temperature;BMP_pressure;BME280_temperature;BME280_humidity;BME280_pressure;Samples;Min_cycle;Max_cycle;Signal;HPM_P1;HPM_P2
2022/09/04 00:02:11;;;;;;;0.30;0.30;;;13.70;99.90;;;;;;4986232;28;20761;-72
2022/09/04 00:05:07;;;;;;;0.40;0.40;;;13.60;99.90;;;;;;4989350;28;20077;-72
2022/09/04 00:08:10;;;;;;;0.70;0.70;;;13.60;99.90;;;;;;4968413;28;20063;-72
2022/09/04 00:10:54;;;;;;;2.67;1.45;;;13.50;99.90;;;;;;4966544;28;20478;-73
2022/09/04 00:13:29;;;;;;;1.52;1.42;;;13.50;99.90;;;;;;4968000;28;20030;-73
2022/09/04 00:16:07;;;;;;;0.43;0.43;;;13.50;99.90;;;;;;4968028;28;20084;-72
2022/09/04 00:19:09;;;;;;;1.25;1.20;;;13.50;99.90;;;;;;4990023;28;20083;-72
2022/09/04 00:21:42;;;;;;;0.50;0.50;;;13.60;99.90;;;;;;5005511;28;20520;-74
2022/09/04 00:24:16;;;;;;;1.00;1.00;;;13.60;99.90;;;;;;5006728;28;20057;-73
2022/09/04 00:27:12;;;;;;;7.90;2.40;;;13.60;99.90;;;;;;4999148;28;20030;-72
2022/09/04 00:30:04;;;;;;;3.92;2.85;;;13.70;99.90;;;;;;4987961;28;20052;-73
2022/09/04 00:32:47;;;;;;;0.35;0.35;;;13.70;99.90;;;;;;4987599;28;20508;-72
2022/09/04 00:35:18;;;;;;;1.85;1.17;;;13.80;99.90;;;;;;5005350;28;20042;-72
2022/09/04 00:37:49;;;;;;;0.50;0.50;;;13.80;99.90;;;;;;5006750;28;20360;-73
2022/09/04 00:40:34;;;;;;;1.10;1.10;;;13.90;99.90;;;;;;4987578;28;20031;-72
2022/09/04 00:43:13;;;;;;;1.13;1.10;;;13.90;99.90;;;;;;4986969;28;20054;-73
2022/09/04 00:46:17;;;;;;;1.98;1.83;;;14.00;99.90;;;;;;4987109;28;20149;-72
2022/09/04 00:48:48;;;;;;;2.05;1.65;;;14.00;99.90;;;;;;5088568;28;20055;-73
2022/09/04 00:51:23;;;;;;;0.70;0.70;;;14.00;99.90;;;;;;5087602;28;20174;-73
2022/09/04 00:54:10;;;;;;;0.65;0.65;;;14.00;99.90;;;;;;5010228;28;20113;-73
2022/09/04 00:56:44;;;;;;;2.15;1.63;;;14.00;99.90;;;;;;4968976;28;20030;-74
2022/09/04 00:59:40;;;;;;;2.05;1.95;;;13.90;99.90;;;;;;5006195;28;20482;-72
2022/09/04 01:02:49;;;;;;;1.95;1.20;;;13.80;99.90;;;;;;4989923;28;20088;-73
2022/09/04 01:05:27;;;;;;;1.45;1.35;;;13.70;99.90;;;;;;4994726;28;20038;-73
2022/09/04 01:08:19;;;;;;;1.23;1.10;;;13.60;99.90;;;;;;4969948;28;20027;-73
2022/09/04 01:11:22;;;;;;;1.13;1.05;;;13.60;99.90;;;;;;5001447;28;20034;-73
2022/09/04 01:14:12;;;;;;;5.20;2.42;;;13.50;99.90;;;;;;5009669;28;20213;-73
2022/09/04 01:17:04;;;;;;;3.15;2.00;;;13.50;99.90;;;;;;5009626;28;20046;-73
2022/09/04 01:19:41;;;;;;;1.95;1.70;;;13.40;99.90;;;;;;5000559;28;20409;-74
2022/09/04 01:22:40;;;;;;;2.35;1.13;;;13.40;99.90;;;;;;5002625;28;20545;-73
2022/09/04 01:25:14;;;;;;;2.08;1.80;;;13.40;99.90;;;;;;5009431;28;20040;-73
2022/09/04 01:28:02;;;;;;;1.42;1.33;;;13.40;99.90;;;;;;5003343;28;20420;-73
2022/09/04 01:30:34;;;;;;;0.75;0.75;;;13.40;99.90;;;;;;4989595;28;20026;-72
2022/09/04 01:33:17;;;;;;;5.05;2.67;;;13.40;99.90;;;;;;4990074;28;20038;-74
2022/09/04 01:36:02;;;;;;;0.50;0.50;;;13.40;99.90;;;;;;4990535;28;20041;-72
2022/09/04 01:38:53;;;;;;;1.00;0.75;;;13.30;99.90;;;;;;4988484;28;20027;-72
2022/09/04 01:41:26;;;;;;;2.65;2.17;;;13.40;99.90;;;;;;4988241;28;20035;-72
2022/09/04 01:43:52;;;;;;;0.73;0.73;;;13.30;99.90;;;;;;5002856;28;20054;-74
2022/09/04 01:46:45;;;;;;;2.60;1.33;;;13.30;99.90;;;;;;5009198;28;20030;-73
2022/09/04 01:49:14;;;;;;;0.90;0.90;;;13.30;99.90;;;;;;5004369;28;20121;-72
2022/09/04 01:52:07;;;;;;;1.60;1.50;;;13.20;99.90;;;;;;4989493;28;20046;-73
2022/09/04 01:54:41;;;;;;;2.33;1.45;;;13.10;99.90;;;;;;4988016;28;20037;-73
2022/09/04 01:57:24;;;;;;;0.73;0.73;;;13.10;99.90;;;;;;4988129;28;20026;-74
2022/09/04 01:59:55;;;;;;;1.05;1.02;;;13.10;99.90;;;;;;5008521;28;20040;-73
2022/09/04 02:02:46;;;;;;;2.38;1.38;;;13.10;99.90;;;;;;5008854;28;20030;-72
2022/09/04 02:05:36;;;;;;;0.93;0.85;;;13.00;99.90;;;;;;4998046;28;20045;-73
2022/09/04 02:08:23;;;;;;;2.55;1.83;;;13.00;99.90;;;;;;4989462;28;20092;-73
2022/09/04 02:11:25;;;;;;;0.77;0.77;;;12.90;99.90;;;;;;4987732;28;20116;-73
2022/09/04 02:14:25;;;;;;;1.00;1.00;;;12.80;99.90;;;;;;4998222;28;20090;-74
2022/09/04 02:17:11;;;;;;;0.50;0.50;;;12.80;99.90;;;;;;5050912;28;20098;-73
2022/09/04 02:20:00;;;;;;;0.50;0.50;;;12.70;99.90;;;;;;5003483;28;20148;-73
2022/09/04 02:23:02;;;;;;;0.50;0.50;;;12.50;99.90;;;;;;4989179;28;20084;-73
2022/09/04 02:25:46;;;;;;;1.50;1.40;;;12.60;99.90;;;;;;4987579;28;20125;-74
2022/09/04 02:28:34;;;;;;;0.88;0.88;;;12.50;99.90;;;;;;4991293;28;20159;-73
2022/09/04 02:31:05;;;;;;;;;;;12.50;99.90;;;;;;5008647;28;20041;-73
2022/09/04 02:33:44;;;;;;;0.80;0.77;;;12.60;99.90;;;;;;5008191;28;19917;-73
2022/09/04 02:36:26;;;;;;;0.73;0.73;;;12.70;99.90;;;;;;4993864;28;20095;-73
2022/09/04 02:39:06;;;;;;;1.08;1.08;;;12.60;99.90;;;;;;4987332;28;20141;-73
2022/09/04 02:41:50;;;;;;;0.40;0.40;;;12.60;99.90;;;;;;4987482;28;20050;-73
2022/09/04 02:44:36;;;;;;;1.75;1.65;;;12.60;99.90;;;;;;4997198;28;20045;-73
2022/09/04 02:47:39;;;;;;;1.10;1.00;;;12.60;99.90;;;;;;5006722;28;20042;-72
2022/09/04 02:50:20;;;;;;;1.23;1.13;;;12.50;99.90;;;;;;5002520;28;20129;-73
2022/09/04 02:53:03;;;;;;;1.02;1.02;;;12.50;99.90;;;;;;4987960;28;20088;-73
2022/09/04 02:55:43;;;;;;;0.70;0.70;;;12.50;99.90;;;;;;4988482;28;20287;-72
2022/09/04 02:58:30;;;;;;;1.40;1.30;;;12.50;99.90;;;;;;4988823;28;20095;-74
2022/09/04 03:01:21;;;;;;;1.17;0.95;;;12.50;99.90;;;;;;4969258;28;20130;-74
2022/09/04 03:04:09;;;;;;;0.45;0.45;;;12.50;99.90;;;;;;4968739;28;20165;-73
2022/09/04 03:06:50;;;;;;;0.73;0.73;;;12.50;99.90;;;;;;4980484;28;20038;-72
2022/09/04 03:09:42;;;;;;;0.52;0.52;;;12.60;99.90;;;;;;4986674;28;20042;-74
2022/09/04 03:12:35;;;;;;;0.50;0.50;;;12.60;99.90;;;;;;4988327;28;20429;-74
2022/09/04 03:15:26;;;;;;;0.65;0.65;;;12.60;99.90;;;;;;4977059;28;20069;-74
2022/09/04 03:18:20;;;;;;;1.00;0.98;;;12.60;99.90;;;;;;4968127;28;20491;-72
2022/09/04 03:20:54;;;;;;;1.73;1.63;;;12.60;99.90;;;;;;4969161;28;20069;-74
2022/09/04 03:23:31;;;;;;;1.35;1.33;;;12.60;99.90;;;;;;4968103;28;20234;-73
2022/09/04 03:26:14;;;;;;;4.18;2.70;;;12.60;99.90;;;;;;4967287;28;20041;-74
2022/09/04 03:29:31;;;;;;;0.32;0.32;;;12.60;99.90;;;;;;4967178;28;20493;-72
2022/09/04 03:32:09;;;;;;;0.90;0.90;;;12.60;99.90;;;;;;5033638;28;20479;-74
2022/09/04 03:34:51;;;;;;;0.90;0.88;;;12.60;99.90;;;;;;4968501;28;20421;-74
2022/09/04 03:37:43;;;;;;;0.40;0.40;;;12.60;99.90;;;;;;4981657;28;20042;-71
2022/09/04 03:40:31;;;;;;;0.85;0.85;;;12.50;99.90;;;;;;4986268;28;20120;-72
2022/09/04 03:43:12;;;;;;;2.72;0.77;;;12.60;99.90;;;;;;4987776;28;20452;-73
2022/09/04 03:46:05;;;;;;;0.82;0.82;;;12.60;99.90;;;;;;4974333;28;20035;-73
2022/09/04 03:48:39;;;;;;;0.45;0.45;;;12.60;99.90;;;;;;4968910;28;20109;-73
2022/09/04 03:51:14;;;;;;;3.70;0.70;;;12.60;99.90;;;;;;4969250;28;20538;-73
2022/09/04 03:53:44;;;;;;;1.63;1.52;;;12.60;99.90;;;;;;4967831;28;20035;-73
2022/09/04 03:56:18;;;;;;;0.80;0.80;;;12.60;99.90;;;;;;4968331;28;20035;-75
2022/09/04 03:58:58;;;;;;;1.38;1.38;;;12.50;99.90;;;;;;4968133;28;20053;-73
2022/09/04 04:01:51;;;;;;;0.70;0.70;;;12.60;99.90;;;;;;4983886;28;20037;-73
2022/09/04 04:04:44;;;;;;;0.43;0.43;;;12.60;99.90;;;;;;4987464;28;20582;-73
2022/09/04 04:07:27;;;;;;;2.35;1.75;;;12.60;99.90;;;;;;4976817;28;20085;-73
2022/09/04 04:10:13;;;;;;;0.40;0.40;;;12.70;99.90;;;;;;4967886;28;20033;-72
2022/09/04 04:13:12;;;;;;;4.22;2.38;;;12.60;99.90;;;;;;4968169;28;20035;-71
2022/09/04 04:16:07;;;;;;;0.95;0.95;;;12.60;99.90;;;;;;4973976;28;20030;-71
2022/09/04 04:19:05;;;;;;;0.93;0.93;;;12.90;99.90;;;;;;4985856;28;20117;-72
2022/09/04 04:21:54;;;;;;;;;;;12.70;99.90;;;;;;4984081;28;20027;-73
2022/09/04 04:24:59;;;;;;;1.02;1.02;;;12.70;99.90;;;;;;4968192;28;19932;-73
2022/09/04 04:27:52;;;;;;;0.40;0.40;;;12.70;99.90;;;;;;4968022;28;20030;-73
2022/09/04 04:30:18;;;;;;;1.20;1.20;;;12.70;99.90;;;;;;4970905;28;20038;-73
2022/09/04 04:33:24;;;;;;;0.47;0.47;;;12.70;99.90;;;;;;4987308;28;20030;-72
2022/09/04 04:36:18;;;;;;;0.60;0.60;;;12.80;99.90;;;;;;4967773;28;20371;-72
2022/09/04 04:39:06;;;;;;;2.83;2.17;;;13.00;99.90;;;;;;4986238;28;20045;-73
2022/09/04 04:42:04;;;;;;;1.23;1.13;;;13.00;99.90;;;;;;4987484;28;20358;-72
2022/09/04 04:47:45;;;;;;;1.45;1.35;;;13.20;99.90;;;;;;4970949;28;19933;-72
2022/09/04 04:50:26;;;;;;;;;;;13.30;99.90;;;;;;4971234;28;20394;-73
2022/09/04 04:53:13;;;;;;;1.27;0.85;;;13.30;99.90;;;;;;4978793;28;20178;-73
2022/09/04 04:55:49;;;;;;;0.77;0.70;;;13.40;99.90;;;;;;4990237;28;20114;-75
2022/09/04 04:58:40;;;;;;;0.30;0.30;;;13.50;99.90;;;;;;4990622;28;20031;-71
2022/09/04 05:01:42;;;;;;;0.52;0.52;;;13.50;99.90;;;;;;5000251;28;20385;-72
2022/09/04 05:04:19;;;;;;;0.88;0.88;;;13.60;99.90;;;;;;4970680;28;20058;-73
2022/09/04 05:06:56;;;;;;;0.55;0.55;;;13.60;99.90;;;;;;4970649;28;20503;-73
2022/09/04 05:09:46;;;;;;;0.45;0.45;;;13.60;99.90;;;;;;4997667;28;20575;-74
2022/09/04 05:12:33;;;;;;;0.70;0.70;;;13.70;99.90;;;;;;5009635;28;20046;-73
2022/09/04 05:15:55;;;;;;;0.80;0.80;;;13.80;99.90;;;;;;5008046;28;20033;-72
2022/09/04 05:18:32;;;;;;;0.70;0.70;;;13.80;99.90;;;;;;5002271;28;20117;-73
2022/09/04 05:21:06;;;;;;;4.75;0.85;;;14.00;99.90;;;;;;4970327;28;20031;-73
2022/09/04 05:23:48;;;;;;;1.95;1.52;;;13.80;99.90;;;;;;4991992;28;20413;-74
2022/09/04 05:26:32;;;;;;;0.98;0.50;;;13.80;99.90;;;;;;5009228;28;20166;-73
2022/09/04 05:29:08;;;;;;;1.50;1.40;;;13.90;99.90;;;;;;5007755;28;20335;-74
2022/09/04 05:31:58;;;;;;;0.75;0.75;;;13.90;99.90;;;;;;5002986;28;20041;-73
2022/09/04 05:34:30;;;;;;;0.40;0.40;;;14.00;99.90;;;;;;4988194;28;20037;-74
2022/09/04 05:36:55;;;;;;;0.50;0.50;;;14.10;99.90;;;;;;4988113;28;20034;-72
2022/09/04 05:39:27;;;;;;;0.87;0.87;;;14.10;99.90;;;;;;4991603;28;20045;-73
2022/09/04 05:42:31;;;;;;;0.45;0.45;;;14.20;99.90;;;;;;4990465;28;20053;-74
2022/09/04 05:45:15;;;;;;;0.88;0.88;;;14.30;99.90;;;;;;5004538;28;20034;-73
2022/09/04 05:47:47;;;;;;;0.57;0.57;;;14.30;99.90;;;;;;5009333;28;20041;-73
2022/09/04 05:50:28;;;;;;;0.50;0.50;;;14.30;99.90;;;;;;5008803;28;20037;-73
2022/09/04 05:53:05;;;;;;;0.75;0.75;;;14.40;99.90;;;;;;5008378;28;20491;-73
2022/09/04 05:55:58;;;;;;;0.40;0.40;;;14.40;99.90;;;;;;5008610;28;20022;-73
2022/09/04 05:58:39;;;;;;;3.85;1.73;;;14.50;99.90;;;;;;4998036;28;20037;-73
2022/09/04 06:01:34;;;;;;;5.68;0.75;;;14.50;99.90;;;;;;4988073;28;20026;-72
2022/09/04 06:04:19;;;;;;;2.28;1.05;;;14.60;99.90;;;;;;4989234;28;20027;-73
2022/09/04 06:06:52;;;;;;;1.15;1.10;;;14.60;99.90;;;;;;4989152;28;20362;-72
2022/09/04 06:09:26;;;;;;;0.75;0.75;;;14.70;99.90;;;;;;5001689;28;20048;-72
2022/09/04 06:12:32;;;;;;;0.90;0.90;;;14.70;99.90;;;;;;4992545;28;20038;-73
2022/09/04 06:15:20;;;;;;;0.70;0.70;;;14.80;99.90;;;;;;4988387;28;20035;-72
2022/09/04 06:17:59;;;;;;;0.57;0.57;;;14.90;99.90;;;;;;4998668;28;20133;-73
2022/09/04 06:20:56;;;;;;;0.30;0.30;;;15.00;99.90;;;;;;5006957;28;20112;-72
2022/09/04 06:23:47;;;;;;;0.40;0.40;;;15.20;99.90;;;;;;5003851;28;20034;-72
2022/09/04 06:26:28;;;;;;;0.60;0.60;;;15.40;99.90;;;;;;4999961;28;20086;-73
2022/09/04 06:29:01;;;;;;;0.30;0.30;;;15.50;99.90;;;;;;5008284;28;20038;-72
2022/09/04 06:31:47;;;;;;;0.70;0.70;;;15.60;99.90;;;;;;5007991;28;20439;-73
2022/09/04 06:34:18;;;;;;;0.90;0.57;;;15.70;99.90;;;;;;4968025;28;20023;-73
2022/09/04 06:37:06;;;;;;;0.30;0.30;;;15.70;99.90;;;;;;4967863;28;20557;-72
2022/09/04 06:39:46;;;;;;;0.40;0.40;;;15.70;99.90;;;;;;4992637;28;20477;-72
2022/09/04 06:42:49;;;;;;;0.40;0.40;;;15.70;99.90;;;;;;5004727;28;20081;-73
2022/09/04 06:45:40;;;;;;;0.30;0.30;;;15.80;99.90;;;;;;5006272;28;20477;-73
2022/09/04 06:48:30;;;;;;;0.30;0.30;;;15.80;99.90;;;;;;5006797;28;20085;-73
2022/09/04 06:51:15;;;;;;;0.30;0.30;;;15.80;99.90;;;;;;5007877;28;20430;-73
2022/09/04 06:54:14;;;;;;;1.23;0.93;;;15.90;99.90;;;;;;5006035;28;20388;-74
2022/09/04 06:56:55;;;;;;;0.73;0.73;;;16.00;99.90;;;;;;5006638;28;20481;-73
2022/09/04 06:59:50;;;;;;;2.65;1.75;;;16.10;99.90;;;;;;5008042;28;20102;-73
2022/09/04 07:02:44;;;;;;;0.40;0.40;;;16.30;99.90;;;;;;5006144;28;20038;-73
2022/09/04 07:05:12;;;;;;;0.60;0.60;;;16.40;99.90;;;;;;5006507;28;20022;-74
2022/09/04 07:07:59;;;;;;;0.45;0.45;;;16.50;99.90;;;;;;5004254;28;20034;-74
2022/09/04 07:11:06;;;;;;;2.78;1.10;;;16.50;99.90;;;;;;4968879;28;20033;-72
2022/09/04 07:14:06;;;;;;;2.10;1.40;;;16.60;99.90;;;;;;4968765;28;20042;-73
2022/09/04 07:16:44;;;;;;;0.30;0.30;;;16.60;99.90;;;;;;4988079;28;20038;-74
2022/09/04 07:19:26;;;;;;;0.40;0.40;;;16.60;99.90;;;;;;5007627;28;20433;-73
2022/09/04 07:22:09;;;;;;;0.38;0.38;;;16.70;99.90;;;;;;5007555;28;20034;-71
2022/09/04 07:24:45;;;;;;;1.40;1.08;;;16.70;99.90;;;;;;5002589;28;20030;-73
2022/09/04 07:27:33;;;;;;;0.50;0.50;;;16.80;99.90;;;;;;4988710;28;20381;-72
2022/09/04 07:30:14;;;;;;;0.35;0.35;;;16.90;99.90;;;;;;4986194;28;20026;-73
2022/09/04 07:33:09;;;;;;;0.40;0.40;;;16.90;99.90;;;;;;4989038;28;20045;-72
2022/09/04 07:35:53;;;;;;;0.30;0.30;;;17.00;99.50;;;;;;4996479;28;20046;-74
2022/09/04 07:38:51;;;;;;;0.47;0.47;;;17.10;99.10;;;;;;4988407;28;20082;-73
2022/09/04 07:41:58;;;;;;;0.30;0.30;;;17.10;99.40;;;;;;4986214;28;20034;-72
2022/09/04 07:44:42;;;;;;;0.50;0.50;;;17.30;99.10;;;;;;4986215;28;20161;-73
2022/09/04 07:47:26;;;;;;;0.63;0.63;;;17.40;98.70;;;;;;4987063;28;20053;-74
2022/09/04 07:50:22;;;;;;;0.50;0.50;;;17.40;98.30;;;;;;4986192;28;20455;-74
2022/09/04 07:53:02;;;;;;;1.10;0.75;;;17.60;97.80;;;;;;4988000;28;20031;-72
2022/09/04 07:55:46;;;;;;;0.30;0.30;;;17.80;97.50;;;;;;5001790;28;20038;-73
2022/09/04 07:58:49;;;;;;;1.35;1.05;;;18.00;96.80;;;;;;5006605;28;20458;-74
2022/09/04 08:01:36;;;;;;;0.30;0.30;;;18.30;96.60;;;;;;5006764;28;20106;-74
2022/09/04 08:04:32;;;;;;;0.35;0.35;;;18.50;95.30;;;;;;5006825;28;20034;-74
2022/09/04 08:07:05;;;;;;;0.50;0.50;;;18.50;95.00;;;;;;5006963;28;20041;-74
2022/09/04 08:10:05;;;;;;;0.30;0.30;;;18.30;94.50;;;;;;4996593;28;20211;-74
2022/09/04 08:12:46;;;;;;;0.45;0.45;;;18.20;94.10;;;;;;4987450;28;20109;-73
2022/09/04 08:15:37;;;;;;;0.65;0.65;;;18.00;94.10;;;;;;4971069;28;20371;-72
2022/09/04 08:18:20;;;;;;;0.30;0.30;;;17.80;94.40;;;;;;4982733;28;20030;-73
2022/09/04 08:21:20;;;;;;;0.30;0.30;;;17.60;94.20;;;;;;4967625;28;20293;-74
2022/09/04 08:23:51;;;;;;;0.50;0.50;;;17.60;94.20;;;;;;4971561;28;20042;-72
2022/09/04 08:26:42;;;;;;;0.68;0.68;;;17.90;93.10;;;;;;5005200;28;20095;-72
2022/09/04 08:29:30;;;;;;;0.40;0.40;;;18.30;92.60;;;;;;4991461;28;20537;-72
2022/09/04 08:32:17;;;;;;;0.40;0.40;;;18.70;91.60;;;;;;4966124;28;20031;-73
2022/09/04 08:34:51;;;;;;;0.50;0.50;;;19.20;91.20;;;;;;4966038;28;20053;-73
2022/09/04 08:37:27;;;;;;;1.20;0.73;;;19.40;90.50;;;;;;4967466;28;20023;-73
2022/09/04 08:40:12;;;;;;;0.35;0.35;;;19.40;90.50;;;;;;4985888;28;20081;-72
2022/09/04 08:42:56;;;;;;;0.43;0.43;;;19.10;90.70;;;;;;4985333;28;20047;-73
2022/09/04 08:45:25;;;;;;;0.30;0.30;;;18.90;90.50;;;;;;4986836;28;20049;-72
2022/09/04 08:48:25;;;;;;;0.30;0.30;;;18.90;90.50;;;;;;4997122;28;20133;-74
2022/09/04 08:51:21;;;;;;;0.30;0.30;;;19.20;90.50;;;;;;5006191;28;20392;-74
2022/09/04 08:53:53;;;;;;;0.43;0.43;;;19.70;89.30;;;;;;5004413;28;20130;-74
2022/09/04 08:57:02;;;;;;;0.77;0.77;;;20.30;86.00;;;;;;5002680;28;20029;-74
2022/09/04 08:59:58;;;;;;;0.40;0.40;;;20.70;84.50;;;;;;5015437;28;20124;-73
2022/09/04 09:02:33;;;;;;;0.55;0.55;;;20.90;84.40;;;;;;4998042;28;20042;-74
2022/09/04 09:05:08;;;;;;;0.40;0.40;;;21.00;82.40;;;;;;4986511;28;20034;-72
2022/09/04 09:08:01;;;;;;;0.30;0.30;;;21.00;82.00;;;;;;4986600;28;20062;-73
2022/09/04 09:11:02;;;;;;;0.30;0.30;;;21.00;81.40;;;;;;5005190;28;20034;-73
2022/09/04 09:13:41;;;;;;;0.63;0.60;;;21.10;80.70;;;;;;5011352;28;20091;-72
2022/09/04 09:16:28;;;;;;;0.60;0.60;;;21.10;79.00;;;;;;5005984;28;20097;-73
2022/09/04 09:19:21;;;;;;;0.45;0.45;;;20.50;79.60;;;;;;4989305;28;20037;-74
2022/09/04 09:22:35;;;;;;;0.50;0.50;;;20.20;80.50;;;;;;4985092;28;20095;-73
2022/09/04 09:25:23;;;;;;;0.47;0.47;;;20.10;79.90;;;;;;5008243;28;20095;-72
2022/09/04 09:28:16;;;;;;;0.60;0.60;;;20.30;80.40;;;;;;5005617;28;20414;-74
2022/09/04 09:31:02;;;;;;;0.30;0.30;;;20.60;79.10;;;;;;5007584;28;20026;-73
2022/09/04 09:33:52;;;;;;;0.30;0.30;;;20.40;78.90;;;;;;5011700;28;20497;-73
2022/09/04 09:37:01;;;;;;;0.40;0.40;;;20.30;79.00;;;;;;4989805;28;20047;-73
2022/09/04 09:39:43;;;;;;;0.75;0.73;;;20.30;78.50;;;;;;4996231;28;20022;-74
2022/09/04 09:42:31;;;;;;;0.47;0.47;;;20.30;79.50;;;;;;5007790;28;20095;-74
2022/09/04 09:45:26;;;;;;;0.60;0.60;;;20.50;79.20;;;;;;5007947;28;20204;-75
2022/09/04 09:48:35;;;;;;;0.60;0.60;;;20.70;77.80;;;;;;5004942;28;20031;-72
2022/09/04 09:51:16;;;;;;;1.08;0.60;;;20.80;76.40;;;;;;5089172;28;20039;-73
2022/09/04 09:54:03;;;;;;;0.77;0.77;;;20.80;77.40;;;;;;4997169;28;20494;-67
2022/09/04 09:56:47;;;;;;;0.30;0.30;;;20.80;76.80;;;;;;4968973;28;20095;-67
2022/09/04 09:59:13;;;;;;;0.40;0.40;;;20.90;76.60;;;;;;4970402;28;20045;-68
2022/09/04 10:01:56;;;;;;;0.43;0.43;;;20.90;76.40;;;;;;4974518;28;20580;-68
2022/09/04 10:04:49;;;;;;;0.77;0.77;;;21.00;76.10;;;;;;4985947;28;20403;-69
2022/09/04 10:07:18;;;;;;;0.30;0.30;;;21.20;75.40;;;;;;4984263;28;20076;-72
2022/09/04 10:10:05;;;;;;;0.30;0.30;;;21.50;74.00;;;;;;4993122;28;20080;-71
2022/09/04 10:12:37;;;;;;;0.30;0.30;;;21.70;74.60;;;;;;4989618;28;20440;-71
2022/09/04 10:15:15;;;;;;;0.52;0.52;;;22.10;73.80;;;;;;4968775;28;20034;-72
2022/09/04 10:18:12;;;;;;;0.35;0.35;;;22.30;72.10;;;;;;4974787;28;20039;-69
2022/09/04 10:21:10;;;;;;;1.65;0.82;;;22.10;71.00;;;;;;4989080;28;20359;-71
2022/09/04 10:23:53;;;;;;;0.30;0.30;;;21.80;71.70;;;;;;4975352;28;20105;-72
2022/09/04 10:26:45;;;;;;;0.47;0.47;;;21.30;74.40;;;;;;4986387;28;20037;-72
2022/09/04 10:29:31;;;;;;;0.30;0.30;;;20.90;74.80;;;;;;4994693;28;20112;-71
2022/09/04 10:32:15;;;;;;;0.30;0.30;;;20.60;76.20;;;;;;4989500;28;20042;-72
2022/09/04 10:35:09;;;;;;;0.30;0.30;;;20.30;74.80;;;;;;5002644;28;20026;-72
2022/09/04 10:38:08;;;;;;;0.32;0.32;;;20.00;76.20;;;;;;5009164;28;20386;-72
2022/09/04 10:41:05;;;;;;;0.40;0.40;;;20.40;76.10;;;;;;5002718;28;20027;-71
2022/09/04 10:43:49;;;;;;;0.45;0.40;;;21.40;74.30;;;;;;4995836;28;20043;-70
2022/09/04 10:46:26;;;;;;;0.30;0.30;;;21.70;73.00;;;;;;4987944;28;20027;-71
2022/09/04 10:49:29;;;;;;;0.30;0.30;;;21.70;73.50;;;;;;4993371;28;20075;-69
2022/09/04 10:52:11;;;;;;;0.30;0.30;;;21.50;73.50;;;;;;5029855;28;20049;-69
2022/09/04 10:55:05;;;;;;;0.40;0.40;;;21.00;74.50;;;;;;5009086;28;20030;-71
2022/09/04 10:58:04;;;;;;;0.40;0.40;;;20.50;76.50;;;;;;4968481;28;20039;-72
2022/09/04 11:00:48;;;;;;;0.40;0.40;;;20.10;77.50;;;;;;4969896;28;20098;-71
2022/09/04 11:03:33;;;;;;;0.30;0.30;;;19.90;78.10;;;;;;4970107;28;20042;-70
2022/09/04 11:06:34;;;;;;;0.30;0.30;;;19.90;78.60;;;;;;5008523;28;20112;-71
2022/09/04 11:09:13;;;;;;;0.30;0.30;;;19.90;77.10;;;;;;5021373;28;20447;-70
2022/09/04 11:12:11;;;;;;;0.30;0.30;;;19.80;76.50;;;;;;4981507;28;20044;-70
2022/09/04 11:14:41;;;;;;;2.45;1.27;;;20.00;76.20;;;;;;4971237;28;20522;-71
2022/09/04 11:17:16;;;;;;;0.30;0.30;;;20.80;75.10;;;;;;4985294;28;20482;-71
2022/09/04 11:19:50;;;;;;;0.30;0.30;;;21.70;73.60;;;;;;4977207;28;20031;-69
2022/09/04 11:22:33;;;;;;;0.38;0.38;;;22.60;71.30;;;;;;4984620;28;20030;-70
2022/09/04 11:25:26;;;;;;;0.30;0.30;;;23.00;71.40;;;;;;4978327;28;20382;-70
2022/09/04 11:28:18;;;;;;;0.30;0.30;;;22.70;71.30;;;;;;4977639;28;20035;-71
2022/09/04 11:31:11;;;;;;;0.45;0.45;;;22.30;72.80;;;;;;4978055;28;20552;-70
2022/09/04 11:33:42;;;;;;;0.30;0.30;;;21.80;73.20;;;;;;4969670;28;20056;-71
2022/09/04 11:36:45;;;;;;;0.30;0.30;;;21.20;74.10;;;;;;4967380;28;20030;-69
2022/09/04 11:39:45;;;;;;;0.40;0.40;;;21.00;76.10;;;;;;4970367;28;20031;-70
2022/09/04 11:42:40;;;;;;;0.30;0.30;;;21.20;76.00;;;;;;4980963;28;20043;-70
2022/09/04 11:45:15;;;;;;;0.30;0.30;;;21.50;73.00;;;;;;4966583;28;20034;-70
2022/09/04 11:48:08;;;;;;;0.30;0.30;;;21.80;72.00;;;;;;4968837;28;20249;-70
2022/09/04 11:51:00;;;;;;;0.52;0.52;;;22.00;70.20;;;;;;4977191;28;20144;-72
2022/09/04 11:54:00;;;;;;;0.30;0.30;;;22.00;69.50;;;;;;4977487;28;20084;-71
2022/09/04 11:56:43;;;;;;;0.40;0.40;;;22.10;69.10;;;;;;4984177;28;20553;-69
2022/09/04 11:59:35;;;;;;;0.40;0.40;;;22.30;67.80;;;;;;4991990;28;20489;-68
2022/09/04 12:02:21;;;;;;;0.47;0.47;;;22.40;67.50;;;;;;4983375;28;20096;-68
2022/09/04 12:05:15;;;;;;;0.28;0.28;;;22.40;67.90;;;;;;4968876;28;20490;-68
2022/09/04 12:08:19;;;;;;;0.28;0.28;;;22.30;68.80;;;;;;4975962;28;20037;-67
2022/09/04 12:11:30;;;;;;;0.30;0.30;;;22.20;70.40;;;;;;4984827;28;20503;-67
2022/09/04 12:14:27;;;;;;;0.30;0.30;;;22.00;70.30;;;;;;4968243;28;20030;-67
2022/09/04 12:17:07;;;;;;;0.30;0.30;;;21.50;68.50;;;;;;4967975;28;20059;-73
2022/09/04 12:20:10;;;;;;;0.30;0.30;;;21.00;68.40;;;;;;5003536;28;20053;-72
2022/09/04 12:22:38;;;;;;;0.30;0.30;;;20.80;68.90;;;;;;5006879;28;20060;-70
2022/09/04 12:25:48;;;;;;;0.40;0.40;;;20.80;70.10;;;;;;4996589;28;20034;-72
2022/09/04 12:28:39;;;;;;;0.30;0.30;;;20.90;69.40;;;;;;4988553;28;20034;-71
2022/09/04 12:31:41;;;;;;;0.47;0.47;;;20.90;69.70;;;;;;4985796;28;20035;-72
2022/09/04 12:34:48;;;;;;;4.05;0.65;;;20.90;69.40;;;;;;5028610;28;20042;-71
2022/09/04 12:38:02;;;;;;;0.28;0.28;;;20.80;69.10;;;;;;5023934;28;20053;-73
2022/09/04 12:40:30;;;;;;;0.50;0.50;;;20.60;69.80;;;;;;5016897;28;20389;-73
2022/09/04 12:43:40;;;;;;;0.40;0.40;;;20.60;73.70;;;;;;4986860;28;20459;-72
2022/09/04 12:46:06;;;;;;;0.40;0.40;;;20.60;74.30;;;;;;4995362;28;20034;-72
2022/09/04 12:48:59;;;;;;;0.30;0.30;;;20.70;74.00;;;;;;4991604;28;20022;-71
2022/09/04 12:51:42;;;;;;;0.50;0.50;;;20.70;74.50;;;;;;5006512;28;20101;-72
2022/09/04 12:54:30;;;;;;;0.40;0.40;;;20.70;75.00;;;;;;5005177;28;20362;-73
2022/09/04 12:57:19;;;;;;;0.30;0.30;;;20.70;73.90;;;;;;4967397;28;20396;-73
2022/09/04 13:00:09;;;;;;;0.50;0.50;;;20.60;72.20;;;;;;4966080;28;20509;-72
2022/09/04 13:02:37;;;;;;;0.30;0.30;;;20.50;71.90;;;;;;4968068;28;20488;-71
2022/09/04 13:05:19;;;;;;;0.30;0.30;;;20.60;72.50;;;;;;5003891;28;20500;-71
2022/09/04 13:08:08;;;;;;;0.30;0.30;;;20.60;71.50;;;;;;5010164;28;20113;-72
2022/09/04 13:10:58;;;;;;;0.50;0.50;;;20.60;71.90;;;;;;5007730;28;20036;-71
2022/09/04 13:14:06;;;;;;;1.27;1.13;;;20.50;73.20;;;;;;5008425;28;20026;-71
2022/09/04 13:16:39;;;;;;;1.55;1.10;;;20.30;73.90;;;;;;5008200;28;20036;-72
2022/09/04 13:19:53;;;;;;;0.30;0.30;;;20.20;74.80;;;;;;5006295;28;20058;-72
2022/09/04 13:22:29;;;;;;;0.63;0.63;;;20.20;75.30;;;;;;5026592;28;20103;-72
2022/09/04 13:25:27;;;;;;;0.65;0.65;;;20.10;75.50;;;;;;5007590;28;20367;-72
2022/09/04 13:28:18;;;;;;;0.30;0.30;;;20.10;76.00;;;;;;4988695;28;20070;-72
2022/09/04 13:31:07;;;;;;;0.40;0.40;;;20.20;76.30;;;;;;4989531;28;20042;-72
2022/09/04 13:34:03;;;;;;;1.05;1.05;;;20.20;77.40;;;;;;4990016;28;20081;-73
2022/09/04 13:36:37;;;;;;;0.60;0.60;;;20.10;76.90;;;;;;5009369;28;20525;-72
2022/09/04 13:39:25;;;;;;;0.30;0.30;;;20.00;75.70;;;;;;5009269;28;20038;-73
2022/09/04 13:42:08;;;;;;;0.30;0.30;;;19.90;75.50;;;;;;4992201;28;20030;-72
2022/09/04 13:44:58;;;;;;;0.30;0.30;;;19.80;74.90;;;;;;4989675;28;20076;-70
2022/09/04 13:47:53;;;;;;;0.30;0.30;;;19.80;75.90;;;;;;4988323;28;20125;-72
2022/09/04 13:50:25;;;;;;;0.40;0.40;;;19.70;77.70;;;;;;5038113;28;20083;-72
2022/09/04 13:53:22;;;;;;;0.57;0.57;;;19.60;77.70;;;;;;5007734;28;20042;-73
2022/09/04 13:56:01;;;;;;;0.93;0.93;;;19.50;78.60;;;;;;5003359;28;20117;-72
2022/09/04 13:58:30;;;;;;;0.30;0.30;;;19.40;79.30;;;;;;4989680;28;20034;-72
2022/09/04 14:01:01;;;;;;;0.93;0.88;;;19.40;79.30;;;;;;4989170;28;20029;-71
2022/09/04 14:03:34;;;;;;;0.30;0.30;;;19.30;80.10;;;;;;4988865;28;20079;-71
2022/09/04 14:06:04;;;;;;;0.40;0.40;;;19.40;80.00;;;;;;5004227;28;20045;-73
2022/09/04 14:08:32;;;;;;;0.30;0.30;;;19.50;79.30;;;;;;5009181;28;20416;-72
2022/09/04 14:11:06;;;;;;;0.60;0.60;;;19.50;78.50;;;;;;5004116;28;20023;-70
2022/09/04 14:13:41;;;;;;;0.50;0.50;;;19.60;78.40;;;;;;4987943;28;20363;-71
2022/09/04 14:16:10;;;;;;;0.70;0.70;;;19.50;77.80;;;;;;4989425;28;20496;-70
2022/09/04 14:19:17;;;;;;;0.30;0.30;;;19.50;76.20;;;;;;4987862;28;20504;-72
2022/09/04 14:21:54;;;;;;;0.47;0.47;;;19.50;76.60;;;;;;5018476;28;20213;-70
2022/09/04 14:24:40;;;;;;;0.30;0.30;;;19.40;77.90;;;;;;4969569;28;20030;-70
2022/09/04 14:27:25;;;;;;;0.30;0.30;;;19.30;78.30;;;;;;4992070;28;20124;-71
2022/09/04 14:30:12;;;;;;;0.77;0.77;;;19.20;78.60;;;;;;5008151;28;20026;-72
2022/09/04 14:32:56;;;;;;;0.30;0.30;;;19.20;78.80;;;;;;5006882;28;20432;-70